Flight Track Log - Related Links

Times and Time Zones

All times are in EDT time to prevent confusion due to time zone crossing. See the SWA1535 flight status page for this flight to view local times or setup timezone preferences in your user account.

Time Position Orientation Groundspeed Altitude Reporting Facility
EDT Latitude Longitude Course Direction KTS MPH feet Rate Location/Type
Thu 01:34:04 PM 41.6811 -71.4311 162° South 193 222 1,600  Level Boston Center
Thu 01:35:32 PM 41.6056 -71.3933 159° South 236 272 5,900 3,324 Climbing Boston Center
Thu 01:36:32 PM 41.5325 -71.3697 166° South 246 283 9,800 2,900 Climbing Boston Center
Thu 01:37:32 PM 41.4636 -71.3458 165° South 268 308 11,700 2,350 Climbing Boston Center
Thu 01:38:32 PM 41.3611 -71.3117 166° South 323 372 14,500 2,550 Climbing Boston Center
Thu 01:39:32 PM 41.2647 -71.2775 165° South 377 434 16,800 2,350 Climbing Boston Center
Thu 01:40:32 PM 41.1478 -71.2439 168° South 401 461 19,200 2,250 Climbing Boston Center
Thu 01:41:32 PM 41.0289 -71.2239 173° South 410 472 21,300 2,300 Climbing Boston Center
Thu 01:42:32 PM 40.9403 -71.3272 221° Southwest 380 437 23,800 2,350 Climbing Boston Center
Thu 01:43:32 PM 40.8811 -71.4767 242° Southwest 397 457 26,000 2,000 Climbing Boston Center
Thu 01:44:32 PM 40.8094 -71.6203 237° Southwest 451 519 27,800 1,700 Climbing Boston Center
Thu 01:45:32 PM 40.7186 -71.7500 227° Southwest 464 534 29,400 1,550 Climbing Boston Center
Thu 01:46:32 PM 40.6256 -71.8878 228° Southwest 491 565 30,900 1,750 Climbing Boston Center
Thu 01:47:32 PM 40.5386 -72.0250 230° Southwest 496 571 32,900 1,750 Climbing Boston Center
Thu 01:48:32 PM 40.4578 -72.1647 233° Southwest 496 571 34,400 1,600 Climbing Boston Center
Thu 01:49:32 PM 40.3686 -72.2958 228° Southwest 491 565 36,100 1,750 Climbing Boston Center
Thu 01:50:32 PM 40.2831 -72.4264 229° Southwest 486 559 37,900 950 Climbing Boston Center
Thu 01:51:32 PM 40.2019 -72.5597 231° Southwest 473 544 38,000 50 Climbing Boston Center
Thu 01:52:32 PM 40.1183 -72.6925 231° Southwest 478 550 38,000  Level Boston Center
Thu 01:53:32 PM 40.0344 -72.8250 230° Southwest 478 550 38,000  Level Boston Center
Thu 01:54:48 PM 39.9308 -72.9833 230° Southwest 476 548 38,000  Level Washington Center
Thu 01:55:48 PM 39.8461 -73.1133 230° Southwest 476 548 38,000  Level Washington Center
Thu 01:56:46 PM 39.7592 -73.2458 230° Southwest 481 554 38,000  Level Washington Center
Thu 01:57:47 PM 39.6764 -73.3753 230° Southwest 481 554 38,000  Level Washington Center
Thu 01:58:48 PM 39.5889 -73.4967 227° Southwest 475 547 38,000  Level Washington Center
Thu 01:59:46 PM 39.5014 -73.6256 229° Southwest 475 547 38,000  Level Washington Center
Thu 02:00:47 PM 39.4181 -73.7542 230° Southwest 475 547 38,000  Level Washington Center
Thu 02:01:48 PM 39.3303 -73.8825 229° Southwest 475 547 38,000  Level Washington Center
Thu 02:02:48 PM 39.2467 -74.0078 229° Southwest 475 547 38,000  Level Washington Center
Thu 02:03:46 PM 39.1606 -74.1353 229° Southwest 475 547 38,000  Level Washington Center
Thu 02:04:46 PM 39.0747 -74.2600 228° Southwest 475 547 38,000  Level Washington Center
Thu 02:05:47 PM 38.9883 -74.3872 229° Southwest 475 547 38,000  Level Washington Center
Thu 02:06:47 PM 38.9125 -74.4978 229° Southwest 470 541 38,000  Level Washington Center
Thu 02:07:48 PM 38.8281 -74.6217 229° Southwest 470 541 38,000  Level Washington Center
Thu 02:08:48 PM 38.7414 -74.7425 227° Southwest 470 541 38,000  Level Washington Center
Thu 02:09:46 PM 38.6419 -74.8500 220° Southwest 470 541 38,000  Level Washington Center
Thu 02:10:46 PM 38.5406 -74.9572 220° Southwest 470 541 38,000  Level Washington Center
Thu 02:11:47 PM 38.4408 -75.0617 219° Southwest 470 541 38,000  Level Washington Center
Thu 02:12:48 PM 38.3433 -75.1708 221° Southwest 470 541 38,000  Level Washington Center
Thu 02:13:47 PM 38.2311 -75.2797 217° Southwest 470 541 38,000  Level Washington Center
Thu 02:14:47 PM 38.1208 -75.3675 212° Southwest 470 541 38,000  Level Washington Center
Thu 02:15:46 PM 38.0125 -75.4600 214° Southwest 470 541 38,000  Level Washington Center
Thu 02:16:46 PM 37.9144 -75.5364 212° Southwest 465 535 38,000  Level Washington Center
Thu 02:17:47 PM 37.8061 -75.6258 213° Southwest 465 535 38,000  Level Washington Center
Thu 02:18:48 PM 37.6892 -75.7231 213° Southwest 465 535 38,000  Level Washington Center
Thu 02:19:46 PM 37.5911 -75.8042 213° Southwest 465 535 38,000  Level Washington Center
Thu 02:20:46 PM 37.4844 -75.8928 213° Southwest 465 535 38,000  Level Washington Center
Thu 02:21:46 PM 37.3778 -75.9814 213° Southwest 465 535 38,000  Level Washington Center
Thu 02:22:47 PM 37.2692 -76.0669 212° Southwest 465 535 38,000  Level Washington Center
Thu 02:23:47 PM 37.1456 -76.1600 211° Southwest 465 535 38,000  Level Washington Center
Thu 02:24:48 PM 37.0408 -76.2425 212° Southwest 460 529 38,000  Level Washington Center
Thu 02:25:45 PM 36.9361 -76.3272 213° Southwest 460 529 38,000  Level Washington Center
Thu 02:26:46 PM 36.8333 -76.4119 213° Southwest 460 529 38,000  Level Washington Center
Thu 02:27:47 PM 36.7306 -76.4964 213° Southwest 460 529 38,000  Level Washington Center
Thu 02:28:48 PM 36.6361 -76.5731 213° Southwest 460 529 38,000  Level Washington Center
Thu 02:29:48 PM 36.5331 -76.6544 212° Southwest 455 524 38,000  Level Washington Center
Thu 02:30:46 PM 36.4281 -76.7356 212° Southwest 455 524 38,000  Level Washington Center
Thu 02:31:47 PM 36.3250 -76.8167 212° Southwest 455 524 38,000  Level Washington Center
Thu 02:32:47 PM 36.2197 -76.9000 213° Southwest 455 524 38,000  Level Washington Center
Thu 02:33:48 PM 36.1125 -76.9803 211° Southwest 460 529 38,000  Level Washington Center
Thu 02:34:48 PM 36.0072 -77.0658 213° Southwest 460 529 38,000  Level Washington Center
Thu 02:35:48 PM 35.9061 -77.1461 213° Southwest 460 529 38,000  Level Washington Center
Thu 02:36:46 PM 35.8006 -77.2283 212° Southwest 454 522 38,000  Level Washington Center
Thu 02:37:46 PM 35.6953 -77.3081 212° Southwest 454 522 38,000  Level Washington Center
Thu 02:38:46 PM 35.5917 -77.3903 213° Southwest 454 522 38,000  Level Washington Center
Thu 02:39:47 PM 35.4819 -77.4694 210° Southwest 454 522 38,000  Level Washington Center
Thu 02:40:47 PM 35.3783 -77.5511 213° Southwest 454 522 38,000  Level Washington Center
Thu 02:41:48 PM 35.2850 -77.6481 220° Southwest 454 522 38,000  Level Washington Center
Thu 02:42:46 PM 35.1917 -77.7447 220° Southwest 449 517 38,000  Level Washington Center
Thu 02:43:47 PM 35.0981 -77.8386 219° Southwest 444 511 38,000  Level Washington Center
Thu 02:44:48 PM 35.0064 -77.9350 221° Southwest 439 505 38,000  Level Washington Center
Thu 02:46:56 PM 34.7983 -78.1450 220° Southwest 429 494 38,000  Level Jacksonville Center
Thu 02:47:56 PM 34.7183 -78.2378 224° Southwest 434 499 38,000  Level Jacksonville Center
Thu 02:48:56 PM 34.6278 -78.3283 219° Southwest 434 499 38,000  Level Jacksonville Center
Thu 02:49:56 PM 34.5333 -78.4217 219° Southwest 440 506 38,000  Level Jacksonville Center
Thu 02:50:56 PM 34.4425 -78.5144 220° Southwest 440 506 38,000  Level Jacksonville Center
Thu 02:51:56 PM 34.3419 -78.6175 220° Southwest 440 506 38,000  Level Jacksonville Center
Thu 02:52:56 PM 34.2511 -78.7075 219° Southwest 440 506 38,000  Level Jacksonville Center
Thu 02:53:56 PM 34.1581 -78.7997 219° Southwest 440 506 38,000  Level Jacksonville Center
Thu 02:54:56 PM 34.0692 -78.8892 220° Southwest 440 506 38,000  Level Jacksonville Center
Thu 02:55:56 PM 33.9781 -78.9808 220° Southwest 440 506 38,000  Level Jacksonville Center
Thu 02:56:56 PM 33.8869 -79.0700 219° Southwest 440 506 38,000  Level Jacksonville Center
Thu 02:57:56 PM 33.7958 -79.1589 219° Southwest 440 506 38,000  Level Jacksonville Center
Thu 02:58:56 PM 33.7228 -79.2294 219° Southwest 434 499 38,000  Level Jacksonville Center
Thu 02:59:56 PM 33.6172 -79.3336 219° Southwest 426 490 38,000  Level Jacksonville Center
Thu 03:00:56 PM 33.5278 -79.4219 219° Southwest 421 484 38,000  Level Jacksonville Center
Thu 03:01:56 PM 33.4364 -79.5125 220° Southwest 421 484 38,000  Level Jacksonville Center
Thu 03:02:56 PM 33.3450 -79.6031 220° Southwest 421 484 38,000  Level Jacksonville Center
Thu 03:03:56 PM 33.2533 -79.6908 219° Southwest 421 484 38,000  Level Jacksonville Center
Thu 03:04:56 PM 33.1636 -79.7783 219° Southwest 421 484 38,000  Level Jacksonville Center
Thu 03:05:56 PM 33.0717 -79.8658 219° Southwest 427 491 38,000  Level Jacksonville Center
Thu 03:06:56 PM 32.9778 -79.9533 218° Southwest 427 491 38,000  Level Jacksonville Center
Thu 03:07:56 PM 32.9044 -80.0275 220° Southwest 427 491 38,000  Level Jacksonville Center
Thu 03:08:56 PM 32.7978 -80.1100 213° Southwest 432 497 38,000  Level Jacksonville Center
Thu 03:09:56 PM 32.6969 -80.1847 212° Southwest 432 497 38,000  Level Jacksonville Center
Thu 03:10:56 PM 32.5964 -80.2567 211° Southwest 432 497 38,000  Level Jacksonville Center
Thu 03:11:56 PM 32.4997 -80.3308 213° Southwest 422 486 38,000  Level Jacksonville Center
Thu 03:12:56 PM 32.4008 -80.4000 211° Southwest 422 486 38,000  Level Jacksonville Center
Thu 03:13:56 PM 32.2953 -80.4497 202° Southwest 422 486 38,000  Level Jacksonville Center
Thu 03:14:56 PM 32.1856 -80.4967 200° South 417 480 38,000  Level Jacksonville Center
Thu 03:15:56 PM 32.0819 -80.5411 200° South 404 465 38,000  Level Jacksonville Center
Thu 03:16:56 PM 31.9619 -80.5931 200° South 412 474 38,000  Level Jacksonville Center
Thu 03:17:56 PM 31.8625 -80.6372 201° Southwest 418 481 38,000  Level Jacksonville Center
Thu 03:18:56 PM 31.7444 -80.6867 200° South 418 481 38,000  Level Jacksonville Center
Thu 03:19:56 PM 31.6347 -80.7356 201° Southwest 425 489 38,000  Level Jacksonville Center
Thu 03:20:56 PM 31.5350 -80.7769 199° South 420 483 38,000  Level Jacksonville Center
Thu 03:21:56 PM 31.4147 -80.8258 199° South 425 489 38,000  Level Jacksonville Center
Thu 03:22:56 PM 31.3153 -80.8717 201° Southwest 425 489 38,000  Level Jacksonville Center
Thu 03:23:56 PM 31.2075 -80.9178 200° South 424 488 38,000  Level Jacksonville Center
Thu 03:24:56 PM 31.0975 -80.9614 199° South 424 488 38,000  Level Jacksonville Center
Thu 03:25:56 PM 30.9897 -81.0072 200° South 424 488 38,000 -50 Level Jacksonville Center
Thu 03:26:56 PM 30.8839 -81.0528 200° South 424 488 37,900 -550 Descending Jacksonville Center
Thu 03:27:56 PM 30.7819 -81.0936 199° South 412 474 36,900 -1,350 Descending Jacksonville Center
Thu 03:28:56 PM 30.6803 -81.1342 199° South 398 458 35,200 -1,450 Descending Jacksonville Center
Thu 03:29:56 PM 30.5719 -81.1531 189° South 391 450 34,000 -900 Descending Jacksonville Center
Thu 03:30:56 PM 30.4572 -81.1503 179° South 403 464 33,400 -1,300 Descending Jacksonville Center
Thu 03:31:56 PM 30.3381 -81.1453 178° South 413 475 31,400 -1,950 Descending Jacksonville Center
Thu 03:32:56 PM 30.2147 -81.1428 179° South 432 497 29,500 -1,900 Descending Jacksonville Center
Thu 03:33:56 PM 30.0875 -81.1378 178° South 450 518 27,600 -1,800 Descending Jacksonville Center
Thu 03:34:56 PM 29.9600 -81.1353 179° South 455 524 25,900 -1,500 Descending Jacksonville Center
Thu 03:35:56 PM 29.8453 -81.1303 178° South 448 516 24,600 -1,150 Descending Jacksonville Center
Thu 03:36:56 PM 29.7344 -81.1275 179° South 422 486 23,600 -1,050 Descending Jacksonville Center
Thu 03:37:56 PM 29.6258 -81.1244 179° South 407 468 22,500 -1,050 Descending Jacksonville Center
Thu 03:38:56 PM 29.5194 -81.1242 180° South 389 448 21,500 -1,400 Descending Jacksonville Center
Thu 03:39:56 PM 29.4150 -81.1189 177° South 382 440 19,700 -1,900 Descending Jacksonville Center
Thu 03:40:56 PM 29.3125 -81.1136 177° South 376 433 17,700 -2,100 Descending Jacksonville Center
Thu 03:41:56 PM 29.2103 -81.1058 176° South 376 433 15,500 -2,150 Descending Jacksonville Center
Thu 03:42:56 PM 29.1119 -81.0981 176° South 371 427 13,400 -1,700 Descending Jacksonville Center
Thu 03:43:56 PM 29.0158 -81.0928 177° South 361 415 12,100 -1,200 Descending Jacksonville Center
Thu 03:44:56 PM 28.9322 -81.0778 171° South 332 382 11,000 -1,450 Descending Jacksonville Center
Thu 03:45:56 PM 28.8547 -81.0672 173° South 305 351 9,200 -2,090 Descending Jacksonville Center
Thu 03:46:25 PM 28.8167 -81.0833 200° South 281 323 7,900 -2,090 Descending Orlando TRACON
Thu 03:47:25 PM 28.7833 -81.1667 245° Southwest 282 325 6,100 -1,150 Descending Orlando TRACON
Thu 03:48:25 PM 28.7667 -81.2500 257° West 251 289 5,600 -1,400 Descending Orlando TRACON
Thu 03:49:25 PM 28.7000 -81.2833 204° Southwest 231 266 3,300 -1,300 Descending Orlando TRACON
Thu 03:50:25 PM 28.6500 -81.2833 180° South 182 209 3,000 -150 Descending Orlando TRACON
Thu 03:51:25 PM 28.6000 -81.2833 180° South 170 196 3,000 -364 Level Orlando TRACON
Thu 03:52:37 PM 28.5500 -81.2833 180° South 173 199 2,200 -700 Descending Orlando TRACON
Thu 03:53:25 PM 28.5167 -81.3000 204° Southwest 145 167 1,600 -778 Descending Orlando TRACON
Thu 03:54:25 PM 28.4667 -81.3000 180° South 137 158 800 -800 Descending Orlando TRACON
Thu 03:56:00 PM 28.4294 -81.3090 188° South  Level Estimated
Thu 04:03:00 PM 28.4294 -81.3090 188° South  Level Estimated
Thu 04:04:00 PM 28.4294 -81.3090 188° South  Level Estimated
Thu 04:05:00 PM 28.4294 -81.3090 188° South  Level Estimated
Thu 04:06:00 PM 28.4294 -81.3090 188° South  Level Estimated

Login

Don't have an account? Register now (free) for customized features, flight alerts, and more!